createdAt,value
2023-02-15T00:00:27.106Z,15.43
2023-02-15T00:02:56.613Z,14.97
2023-02-15T00:05:25.022Z,14.37
2023-02-15T00:07:53.375Z,14.53
2023-02-15T00:10:21.798Z,14.93
2023-02-15T00:12:50.161Z,14.53
2023-02-15T00:15:18.810Z,14.00
2023-02-15T00:17:48.600Z,15.80
2023-02-15T00:20:17.113Z,14.30
2023-02-15T00:22:45.472Z,15.43
2023-02-15T00:25:13.874Z,14.67
2023-02-15T00:27:42.302Z,15.70
2023-02-15T00:30:11.524Z,15.23
2023-02-15T00:32:39.986Z,15.67
2023-02-15T00:35:10.435Z,14.60
2023-02-15T00:37:38.760Z,16.00
2023-02-15T00:40:08.646Z,15.53
2023-02-15T00:42:37.050Z,15.93
2023-02-15T00:45:06.024Z,16.73
2023-02-15T00:47:34.609Z,16.90
2023-02-15T00:50:04.346Z,15.63
2023-02-15T00:52:34.209Z,16.77
2023-02-15T00:55:05.240Z,17.10
2023-02-15T00:57:33.679Z,16.53
2023-02-15T01:00:02.034Z,19.07
2023-02-15T01:02:30.609Z,18.17
2023-02-15T01:04:58.983Z,18.17
2023-02-15T01:07:27.420Z,17.27
2023-02-15T01:09:57.305Z,17.47
2023-02-15T01:12:25.672Z,17.80
2023-02-15T01:14:53.981Z,16.13
2023-02-15T01:17:22.352Z,17.13
2023-02-15T01:19:52.408Z,17.47
2023-02-15T01:22:21.364Z,18.33
2023-02-15T01:24:51.674Z,15.67
2023-02-15T01:27:21.516Z,15.37
2023-02-15T01:29:50.086Z,15.33
2023-02-15T01:32:18.509Z,16.17
2023-02-15T01:34:46.880Z,15.47
2023-02-15T01:37:15.384Z,15.73
2023-02-15T01:39:44.109Z,15.53
2023-02-15T01:42:13.513Z,15.47
2023-02-15T01:44:55.181Z,14.83
2023-02-15T01:47:29.303Z,15.27
2023-02-15T01:50:04.431Z,15.53
2023-02-15T01:52:33.253Z,14.40
2023-02-15T01:55:01.724Z,14.30
2023-02-15T01:57:31.966Z,16.00
2023-02-15T02:00:08.791Z,15.83
2023-02-15T02:02:46.120Z,16.07
2023-02-15T02:05:16.991Z,15.03
2023-02-15T02:07:48.961Z,15.27
2023-02-15T02:10:20.096Z,15.40
2023-02-15T02:12:51.624Z,16.60
2023-02-15T02:15:29.577Z,14.27
2023-02-15T02:18:12.308Z,15.20
2023-02-15T02:21:15.860Z,14.30
2023-02-15T02:23:58.790Z,14.20
2023-02-15T02:26:58.267Z,15.17
2023-02-15T02:29:58.950Z,15.83
2023-02-15T02:32:52.599Z,15.73
2023-02-15T02:35:29.150Z,14.10
2023-02-15T02:38:05.966Z,17.53
2023-02-15T02:40:46.746Z,16.73
2023-02-15T02:43:23.133Z,16.03
2023-02-15T02:45:58.595Z,15.23
2023-02-15T02:48:31.840Z,14.80
2023-02-15T02:51:00.278Z,15.13
2023-02-15T02:53:30.134Z,14.87
2023-02-15T02:56:01.883Z,15.73
2023-02-15T02:58:37.897Z,14.57
2023-02-15T03:01:11.672Z,15.07
2023-02-15T03:03:45.332Z,14.73
2023-02-15T03:06:19.172Z,15.23
2023-02-15T03:08:50.879Z,15.63
2023-02-15T03:11:19.474Z,15.43
2023-02-15T03:13:50.809Z,15.20
2023-02-15T03:16:28.414Z,15.57
2023-02-15T03:19:02.697Z,14.80
2023-02-15T03:21:36.950Z,14.70
2023-02-15T03:24:16.086Z,15.30
2023-02-15T03:26:47.876Z,14.40
2023-02-15T03:29:18.569Z,15.87
2023-02-15T03:31:51.386Z,15.57
2023-02-15T03:34:21.502Z,15.53
2023-02-15T03:36:55.607Z,14.50
2023-02-15T03:39:32.457Z,15.20
2023-02-15T03:42:09.410Z,14.93
2023-02-15T03:44:49.449Z,14.53
2023-02-15T03:47:21.657Z,13.90
2023-02-15T03:49:57.151Z,13.97
2023-02-15T03:52:26.482Z,15.33
2023-02-15T03:54:55.841Z,14.80
2023-02-15T03:57:44.645Z,16.33
2023-02-15T04:00:34.024Z,15.63
2023-02-15T04:03:25.491Z,13.97
2023-02-15T04:05:55.387Z,13.37
2023-02-15T04:08:44.370Z,13.73
2023-02-15T04:11:11.814Z,14.30
2023-02-15T04:13:40.263Z,13.80
2023-02-15T04:16:08.990Z,14.90
2023-02-15T04:18:59.242Z,15.03
2023-02-15T04:21:48.655Z,13.77
2023-02-15T04:24:35.124Z,14.47
2023-02-15T04:27:04.646Z,15.23
2023-02-15T04:29:33.885Z,14.63
2023-02-15T04:32:03.845Z,14.10
2023-02-15T04:34:32.672Z,14.70
2023-02-15T04:37:02.451Z,14.37
2023-02-15T04:39:31.084Z,14.70
2023-02-15T04:41:59.555Z,15.07
2023-02-15T04:44:28.041Z,13.90
2023-02-15T04:46:56.998Z,14.35
2023-02-15T04:49:25.410Z,14.53
2023-02-15T04:51:53.872Z,13.93
2023-02-15T04:54:23.703Z,16.00
2023-02-15T04:56:52.046Z,14.70
2023-02-15T04:59:20.472Z,16.33
2023-02-15T05:01:49.054Z,16.33
2023-02-15T05:04:17.456Z,15.63
2023-02-15T05:06:45.983Z,14.77
2023-02-15T05:09:14.860Z,15.47
2023-02-15T05:11:44.825Z,14.03
2023-02-15T05:14:13.303Z,14.83
2023-02-15T05:16:41.931Z,13.83
2023-02-15T05:19:10.360Z,13.67
2023-02-15T05:21:38.715Z,13.90
2023-02-15T05:24:28.696Z,13.03
2023-02-15T05:27:15.824Z,14.70
2023-02-15T05:29:44.251Z,13.23
2023-02-15T05:32:15.479Z,13.47
2023-02-15T05:34:44.023Z,13.00
2023-02-15T05:37:12.403Z,13.37
2023-02-15T05:39:40.855Z,13.13
2023-02-15T05:42:10.776Z,14.13
2023-02-15T05:44:39.210Z,13.13
2023-02-15T05:47:08.515Z,13.60
2023-02-15T05:49:37.185Z,12.93
2023-02-15T05:52:05.847Z,13.00
2023-02-15T05:54:34.540Z,11.93
2023-02-15T05:57:02.877Z,12.30
2023-02-15T05:59:33.260Z,13.57
2023-02-15T06:02:01.809Z,13.47
2023-02-15T06:04:30.584Z,13.37
2023-02-15T06:06:59.394Z,13.67
2023-02-15T06:09:27.728Z,13.13
2023-02-15T06:11:57.182Z,12.73
2023-02-15T06:14:25.552Z,12.03
2023-02-15T06:16:55.478Z,12.80
2023-02-15T06:19:24.017Z,12.60
2023-02-15T06:21:52.478Z,12.63
2023-02-15T06:24:20.960Z,11.87
2023-02-15T06:26:49.382Z,12.70
2023-02-15T06:29:17.964Z,13.53
2023-02-15T06:31:46.429Z,11.53
2023-02-15T06:34:16.357Z,12.73
2023-02-15T06:36:44.735Z,11.80
2023-02-15T06:39:13.127Z,13.53
2023-02-15T06:41:41.596Z,13.60
2023-02-15T06:44:10.246Z,13.47
2023-02-15T06:46:38.763Z,12.47
2023-02-15T06:49:07.255Z,13.30
2023-02-15T06:51:37.083Z,12.70
2023-02-15T06:54:05.459Z,12.30
2023-02-15T06:56:34.415Z,12.83
2023-02-15T06:59:02.827Z,11.90
2023-02-15T07:01:31.337Z,12.43
2023-02-15T07:03:59.673Z,13.13
2023-02-15T07:06:28.131Z,12.63
2023-02-15T07:08:57.943Z,11.57
2023-02-15T07:11:58.324Z,12.23
2023-02-15T07:14:28.729Z,14.00
2023-02-15T07:16:57.538Z,12.13
2023-02-15T07:19:25.932Z,12.53
2023-02-15T07:21:54.325Z,13.33
2023-02-15T07:24:24.408Z,12.90
2023-02-15T07:26:52.796Z,13.67
2023-02-15T07:29:21.206Z,13.43
2023-02-15T07:31:49.609Z,14.57
2023-02-15T07:34:17.994Z,12.97
2023-02-15T07:36:48.302Z,12.57
2023-02-15T07:39:16.719Z,12.87
2023-02-15T07:41:46.544Z,12.40
2023-02-15T07:44:16.194Z,12.83
2023-02-15T07:46:45.642Z,12.70
2023-02-15T07:49:14.144Z,13.20
2023-02-15T07:51:42.705Z,13.83
2023-02-15T07:54:11.122Z,13.37
2023-02-15T07:56:39.610Z,12.77
2023-02-15T07:59:10.269Z,14.03
2023-02-15T08:01:40.259Z,13.97
2023-02-15T08:04:10.634Z,13.77
2023-02-15T08:06:45.252Z,12.57
2023-02-15T08:09:18.034Z,12.27
2023-02-15T08:11:46.650Z,12.53
2023-02-15T08:14:20.408Z,13.23
2023-02-15T08:16:52.511Z,12.87
2023-02-15T08:19:23.734Z,12.17
2023-02-15T08:21:58.546Z,10.87
2023-02-15T08:24:31.248Z,12.23
2023-02-15T08:27:00.134Z,10.97
2023-02-15T08:29:31.549Z,10.67
2023-02-15T08:32:03.393Z,11.27
2023-02-15T08:34:33.881Z,10.83
2023-02-15T08:37:02.870Z,10.57
2023-02-15T08:39:31.576Z,10.83
2023-02-15T08:42:00.143Z,11.30
2023-02-15T08:44:30.438Z,10.37
2023-02-15T08:47:03.925Z,12.27
2023-02-15T08:49:32.668Z,11.57
2023-02-15T08:52:02.068Z,12.37
2023-02-15T08:54:31.022Z,11.17
2023-02-15T08:56:59.985Z,9.30
2023-02-15T08:59:29.953Z,9.27
2023-02-15T09:01:58.513Z,8.80
2023-02-15T09:04:27.979Z,8.70
2023-02-15T09:06:56.658Z,8.67
2023-02-15T09:09:25.137Z,9.20
2023-02-15T09:11:58.751Z,9.47
2023-02-15T09:14:29.793Z,9.80
2023-02-15T09:16:58.252Z,10.23
2023-02-15T09:19:27.086Z,10.23
2023-02-15T09:21:55.662Z,11.70
2023-02-15T09:24:24.121Z,11.30
2023-02-15T09:26:52.557Z,11.77
2023-02-15T09:29:21.871Z,11.97
2023-02-15T09:31:52.689Z,12.10
2023-02-15T09:34:23.028Z,11.40
2023-02-15T09:36:53.275Z,12.17
2023-02-15T09:39:24.836Z,13.53
2023-02-15T09:42:11.890Z,16.47
2023-02-15T09:44:54.812Z,17.27
2023-02-15T09:47:50.729Z,18.63
2023-02-15T09:50:25.923Z,16.77
2023-02-15T09:53:09.620Z,14.03
2023-02-15T09:55:53.549Z,15.83
2023-02-15T09:58:32.097Z,16.17
2023-02-15T10:01:06.720Z,15.47
2023-02-15T10:03:46.329Z,14.93
2023-02-15T10:06:43.222Z,15.13
2023-02-15T10:09:30.892Z,14.93
2023-02-15T10:12:16.051Z,14.07
2023-02-15T10:15:10.312Z,14.43
2023-02-15T10:17:54.715Z,14.07
2023-02-15T10:20:32.811Z,12.97
2023-02-15T10:23:16.965Z,12.33
2023-02-15T10:25:50.878Z,13.27
2023-02-15T10:28:21.752Z,12.77
2023-02-15T10:30:52.249Z,13.97
2023-02-15T10:33:37.153Z,13.50
2023-02-15T10:36:19.369Z,13.17
2023-02-15T10:38:56.679Z,13.43
2023-02-15T10:41:35.462Z,12.40
2023-02-15T10:44:20.385Z,13.03
2023-02-15T10:47:14.301Z,13.07
2023-02-15T10:49:56.187Z,11.87
2023-02-15T10:52:41.989Z,11.97
2023-02-15T10:55:18.075Z,11.30
2023-02-15T10:57:56.342Z,12.33
2023-02-15T11:00:32.400Z,13.53
2023-02-15T11:03:14.832Z,11.40
2023-02-15T11:05:51.396Z,11.93
2023-02-15T11:08:21.726Z,11.10
2023-02-15T11:10:53.809Z,11.07
2023-02-15T11:13:26.994Z,9.67
2023-02-15T11:15:59.536Z,8.10
2023-02-15T11:18:33.558Z,10.90
2023-02-15T11:21:06.331Z,10.70
2023-02-15T11:23:38.474Z,9.83
2023-02-15T11:26:16.058Z,10.03
2023-02-15T11:28:50.775Z,8.43
2023-02-15T11:31:21.609Z,7.63
2023-02-15T11:33:56.438Z,7.40
2023-02-15T11:36:28.691Z,6.87
2023-02-15T11:39:03.145Z,6.43
2023-02-15T11:41:36.884Z,6.77
2023-02-15T11:44:10.808Z,5.87
2023-02-15T11:46:39.628Z,3.63
2023-02-15T11:49:23.237Z,3.40
2023-02-15T11:51:52.895Z,2.90
2023-02-15T11:54:28.879Z,3.73
2023-02-15T11:57:01.849Z,3.93
2023-02-15T11:59:37.766Z,3.70
2023-02-15T12:02:18.432Z,3.47
2023-02-15T12:04:51.841Z,3.37
2023-02-15T12:07:26.784Z,3.90
2023-02-15T12:10:05.361Z,3.80
2023-02-15T12:12:35.914Z,3.67
2023-02-15T12:15:06.780Z,2.67
2023-02-15T12:17:38.046Z,2.97
2023-02-15T12:20:22.839Z,2.57
2023-02-15T12:22:54.323Z,3.10
2023-02-15T12:25:28.358Z,2.80
2023-02-15T12:27:57.376Z,3.17
2023-02-15T12:30:32.556Z,3.20
2023-02-15T12:33:08.295Z,3.63
2023-02-15T12:35:38.985Z,3.53
2023-02-15T12:38:24.029Z,3.13
2023-02-15T12:41:02.135Z,2.60
2023-02-15T12:43:34.584Z,3.40
2023-02-15T12:46:23.797Z,3.50
2023-02-15T12:49:08.988Z,3.30
2023-02-15T12:51:51.918Z,3.83
2023-02-15T12:54:41.216Z,3.60
2023-02-15T12:57:24.382Z,3.07
2023-02-15T12:59:55.252Z,3.23
2023-02-15T13:02:29.612Z,2.70
2023-02-15T13:05:00.010Z,3.10
2023-02-15T13:07:33.700Z,3.70
2023-02-15T13:10:02.185Z,3.50
2023-02-15T13:12:34.692Z,3.73
2023-02-15T13:15:05.752Z,3.67
2023-02-15T13:17:35.795Z,4.03
2023-02-15T13:20:10.908Z,3.60
2023-02-15T13:22:44.125Z,3.60
2023-02-15T13:25:17.473Z,3.70
2023-02-15T13:27:50.676Z,4.33
2023-02-15T13:30:33.229Z,4.27
2023-02-15T13:33:06.306Z,3.93
2023-02-15T13:35:45.676Z,3.60
2023-02-15T13:38:30.160Z,3.60
2023-02-15T13:41:05.715Z,3.67
2023-02-15T13:43:49.050Z,4.00
2023-02-15T13:46:27.758Z,3.53
2023-02-15T13:49:10.455Z,4.43
2023-02-15T13:51:45.603Z,3.90
2023-02-15T13:54:35.908Z,4.30
2023-02-15T13:57:22.090Z,4.07
2023-02-15T14:00:05.173Z,4.00
2023-02-15T14:03:34.841Z,4.00
2023-02-15T14:06:28.930Z,4.00
2023-02-15T14:09:11.813Z,4.30
2023-02-15T14:11:49.713Z,4.63
2023-02-15T14:14:34.319Z,5.53
2023-02-15T14:17:13.690Z,5.30
2023-02-15T14:19:50.995Z,5.33
2023-02-15T14:22:31.033Z,5.67
2023-02-15T14:25:15.884Z,4.67
2023-02-15T14:27:55.205Z,4.87
2023-02-15T14:30:29.311Z,5.60
2023-02-15T14:33:04.436Z,5.27
2023-02-15T14:35:33.379Z,4.97
2023-02-15T14:38:09.047Z,4.93
2023-02-15T14:41:06.188Z,4.50
2023-02-15T14:43:57.500Z,4.63
2023-02-15T14:46:33.846Z,5.00
2023-02-15T14:49:13.343Z,5.37
2023-02-15T14:52:03.109Z,4.70
2023-02-15T14:55:00.310Z,5.27
2023-02-15T14:57:34.979Z,5.43
2023-02-15T15:00:40.328Z,5.37
2023-02-15T15:03:25.546Z,5.53
2023-02-15T15:06:01.002Z,4.83
2023-02-15T15:08:36.655Z,4.90
2023-02-15T15:11:44.209Z,4.50
2023-02-15T15:14:28.623Z,5.27
2023-02-15T15:16:57.105Z,6.37
2023-02-15T15:20:09.193Z,5.17
2023-02-15T15:22:39.032Z,5.97
2023-02-15T15:25:13.160Z,4.57
2023-02-15T15:27:56.718Z,5.30
2023-02-15T15:31:01.911Z,4.40
2023-02-15T15:34:16.286Z,4.53
2023-02-15T15:37:18.659Z,4.33
2023-02-15T15:40:26.072Z,4.00
2023-02-15T15:43:20.618Z,4.37
2023-02-15T15:46:07.825Z,4.07
2023-02-15T15:48:39.160Z,3.60
2023-02-15T15:51:13.509Z,2.97
2023-02-15T15:53:45.349Z,3.27
2023-02-15T15:56:21.026Z,3.07
2023-02-15T15:58:53.957Z,2.57
2023-02-15T16:01:29.024Z,2.40
2023-02-15T16:04:00.018Z,2.47
2023-02-15T16:06:34.925Z,3.10
2023-02-15T16:09:20.090Z,2.50
2023-02-15T16:11:52.630Z,2.67
2023-02-15T16:14:28.998Z,2.93
2023-02-15T16:16:59.684Z,2.90
2023-02-15T16:19:33.226Z,2.60
2023-02-15T16:22:04.731Z,3.23
2023-02-15T16:25:11.077Z,2.70
2023-02-15T16:27:43.087Z,2.37
2023-02-15T16:30:30.031Z,2.23
2023-02-15T16:33:06.766Z,2.57
2023-02-15T16:35:36.122Z,2.20
2023-02-15T16:38:04.857Z,2.20
2023-02-15T16:40:54.825Z,2.60
2023-02-15T16:43:28.628Z,2.50
2023-02-15T16:46:06.331Z,2.23
2023-02-15T16:48:41.248Z,2.40
2023-02-15T16:51:11.155Z,2.37
2023-02-15T16:53:39.669Z,2.50
2023-02-15T16:56:08.338Z,2.10
2023-02-15T16:58:44.116Z,2.40
2023-02-15T17:01:15.261Z,3.13
2023-02-15T17:03:44.635Z,4.73
2023-02-15T17:06:23.484Z,3.97
2023-02-15T17:08:51.972Z,4.07
2023-02-15T17:11:22.124Z,3.33
2023-02-15T17:14:15.543Z,2.90
2023-02-15T17:16:50.262Z,3.03
2023-02-15T17:19:23.802Z,3.33
2023-02-15T17:21:55.160Z,3.83
2023-02-15T17:24:35.238Z,4.00
2023-02-15T17:27:07.465Z,3.57
2023-02-15T17:29:40.521Z,3.80
2023-02-15T17:32:18.438Z,3.33
2023-02-15T17:35:09.337Z,2.97
2023-02-15T17:37:49.464Z,3.20
2023-02-15T17:40:23.439Z,3.33
2023-02-15T17:42:51.897Z,2.90
2023-02-15T17:45:22.489Z,3.27
2023-02-15T17:47:51.679Z,2.97
2023-02-15T17:50:23.432Z,2.50
2023-02-15T17:52:52.671Z,2.40
2023-02-15T17:55:39.242Z,3.33
2023-02-15T17:58:10.664Z,3.00
2023-02-15T18:01:00.600Z,2.40
2023-02-15T18:03:58.197Z,2.33
2023-02-15T18:06:43.783Z,2.30
2023-02-15T18:09:31.972Z,2.30
2023-02-15T18:12:00.423Z,2.60
2023-02-15T18:14:28.828Z,2.23
2023-02-15T18:16:58.676Z,2.43
2023-02-15T18:19:28.330Z,2.70
2023-02-15T18:21:58.033Z,2.50
2023-02-15T18:24:27.997Z,2.90
2023-02-15T18:26:56.849Z,2.70
2023-02-15T18:29:25.184Z,2.77
2023-02-15T18:31:57.050Z,3.10
2023-02-15T18:34:31.392Z,2.57
2023-02-15T18:37:03.594Z,2.97
2023-02-15T18:39:38.814Z,3.10
2023-02-15T18:42:08.368Z,3.27
2023-02-15T18:44:36.659Z,3.70
2023-02-15T18:47:07.281Z,4.07
2023-02-15T18:49:37.131Z,4.00
2023-02-15T18:52:05.653Z,4.40
2023-02-15T18:54:34.588Z,4.33
2023-02-15T18:57:03.998Z,3.83
2023-02-15T18:59:33.839Z,3.47
2023-02-15T19:02:02.363Z,4.70
2023-02-15T19:04:32.579Z,6.87
2023-02-15T19:07:02.417Z,5.97
2023-02-15T19:09:31.113Z,5.30
2023-02-15T19:12:00.676Z,5.27
2023-02-15T19:14:32.045Z,5.07
2023-02-15T19:17:01.786Z,4.97
2023-02-15T19:19:30.235Z,5.70
2023-02-15T19:21:58.748Z,5.17
2023-02-15T19:24:38.260Z,5.40
2023-02-15T19:27:08.288Z,5.00
2023-02-15T19:29:36.625Z,5.97
2023-02-15T19:32:05.114Z,5.47
2023-02-15T19:34:34.045Z,6.00
2023-02-15T19:37:02.536Z,6.10
2023-02-15T19:39:38.708Z,6.60
2023-02-15T19:42:07.640Z,6.40
2023-02-15T19:44:35.926Z,5.97
2023-02-15T19:47:04.875Z,5.70
2023-02-15T19:49:33.539Z,6.00
2023-02-15T19:52:02.721Z,5.23
2023-02-15T19:54:35.372Z,7.05
2023-02-15T19:57:03.909Z,5.67
2023-02-15T19:59:34.382Z,5.33
2023-02-15T20:02:02.905Z,5.03
2023-02-15T20:04:31.614Z,5.30
2023-02-15T20:07:03.012Z,5.50
2023-02-15T20:09:35.684Z,5.10
2023-02-15T20:12:04.376Z,5.47
2023-02-15T20:14:32.954Z,5.07
2023-02-15T20:17:01.364Z,4.33
2023-02-15T20:19:29.905Z,5.07
2023-02-15T20:21:59.078Z,5.07
2023-02-15T20:24:30.507Z,4.87
2023-02-15T20:27:00.756Z,4.40
2023-02-15T20:29:30.168Z,4.90
2023-02-15T20:32:01.595Z,4.30
2023-02-15T20:34:30.161Z,4.13
2023-02-15T20:36:58.943Z,4.60
2023-02-15T20:39:27.365Z,4.30
2023-02-15T20:41:56.707Z,4.30
2023-02-15T20:44:29.204Z,6.03
2023-02-15T20:46:59.338Z,4.23
2023-02-15T20:49:28.968Z,4.00
2023-02-15T20:51:58.562Z,4.93
2023-02-15T20:54:30.388Z,4.37
2023-02-15T20:56:59.329Z,5.33
2023-02-15T20:59:32.320Z,4.30
2023-02-15T21:02:02.370Z,4.43
2023-02-15T21:04:33.168Z,3.63
2023-02-15T21:07:02.145Z,4.40
2023-02-15T21:09:31.133Z,3.90
2023-02-15T21:12:02.753Z,4.63
2023-02-15T21:14:32.804Z,4.03
2023-02-15T21:17:01.366Z,4.67
2023-02-15T21:19:30.428Z,4.13
2023-02-15T21:22:00.953Z,4.83
2023-02-15T21:24:30.640Z,4.57
2023-02-15T21:27:03.562Z,4.77
2023-02-15T21:29:34.052Z,7.60
2023-02-15T21:32:04.065Z,5.50
2023-02-15T21:34:32.912Z,4.90
2023-02-15T21:37:01.337Z,5.20
2023-02-15T21:39:33.820Z,4.77
2023-02-15T21:42:19.528Z,4.80
2023-02-15T21:45:06.748Z,4.73
2023-02-15T21:47:52.996Z,4.73
2023-02-15T21:50:41.392Z,4.97
2023-02-15T21:53:13.509Z,4.40
2023-02-15T21:55:42.334Z,4.90
2023-02-15T21:58:20.486Z,4.73
2023-02-15T22:00:54.895Z,4.80
2023-02-15T22:03:24.908Z,5.97
2023-02-15T22:05:54.070Z,5.40
2023-02-15T22:08:22.551Z,4.87
2023-02-15T22:10:51.088Z,5.13
2023-02-15T22:13:27.524Z,4.30
2023-02-15T22:15:58.227Z,4.20
2023-02-15T22:18:31.415Z,5.10
2023-02-15T22:21:02.284Z,4.20
2023-02-15T22:23:30.917Z,4.20
2023-02-15T22:26:04.170Z,4.70
2023-02-15T22:28:34.954Z,4.57
2023-02-15T22:31:05.891Z,4.20
2023-02-15T22:33:35.775Z,4.07
2023-02-15T22:36:04.160Z,4.57
2023-02-15T22:38:32.614Z,4.23
2023-02-15T22:41:06.249Z,4.47
2023-02-15T22:43:40.575Z,4.20
2023-02-15T22:46:16.941Z,4.33
2023-02-15T22:48:47.742Z,4.43
2023-02-15T22:51:17.292Z,5.60
2023-02-15T22:53:45.710Z,4.77
2023-02-15T22:56:19.645Z,4.90
2023-02-15T22:58:50.546Z,5.43
2023-02-15T23:01:24.925Z,8.33
2023-02-15T23:03:53.475Z,7.60
2023-02-15T23:06:21.850Z,7.30
2023-02-15T23:08:50.263Z,6.67
2023-02-15T23:11:19.692Z,4.83
2023-02-15T23:13:49.925Z,4.40
2023-02-15T23:16:19.379Z,6.83
2023-02-15T23:18:49.481Z,4.83
2023-02-15T23:21:22.289Z,4.63
2023-02-15T23:23:53.118Z,4.27
2023-02-15T23:26:25.022Z,4.10
2023-02-15T23:28:57.978Z,4.40
2023-02-15T23:31:28.834Z,4.60
2023-02-15T23:33:59.575Z,4.00
2023-02-15T23:36:30.696Z,4.40
2023-02-15T23:39:20.690Z,4.70
2023-02-15T23:41:48.072Z,4.27
2023-02-15T23:44:16.709Z,4.93
2023-02-15T23:46:47.499Z,5.53
2023-02-15T23:49:19.142Z,5.90
2023-02-15T23:51:49.430Z,5.83
2023-02-15T23:54:19.728Z,4.67
2023-02-15T23:56:51.515Z,4.23
2023-02-15T23:59:22.031Z,3.57
